Goodland, KS (67735)

9:41 PM MDT on August 30, 2016 (GMT -0600)
City of Gld Backyard Station | | Change Station

Elev 3711 ft 39.34 °N, 101.71 °W | Updated 6 minutes ago

Mostly Cloudy
Mostly Cloudy
61.7 °F
Feels Like 61.7 °F
N
2.2
Wind Variable Wind from ESE

Today
High -- | Low -- °F
--% Chance of Precip.
Yesterday
High -- | Low -- °F
Precip. -- in
Pressure 30.15 in
Visibility 10.0 miles
Clouds Few 6500 ft
Scattered Clouds 9500 ft
Mostly Cloudy 11000 ft
Dew Point 59 °F
Humidity 92%
Rainfall 0.70 in
Snow Depth Not available.
6:13 AM 7:19 PM
Waning Crescent, 2% visible
METAR KGLD 310253Z AUTO 18004KT 10SM FEW065 SCT095 BKN110 17/14 A3024 RMK AO2 LTG DSNT SW RAE53 TSE02 SLP208 P0001 60032 T01720144 51007
Pressure 30.15 in
Visibility 10.0 miles
Clouds Few 6500 ft
Scattered Clouds 9500 ft
Mostly Cloudy 11000 ft
Dew Point 59 °F
Humidity 92%
Rainfall 0.70 in
Snow Depth Not available.
6:13 AM 7:19 PM
Waning Crescent, 2% visible
METAR KGLD 310253Z AUTO 18004KT 10SM FEW065 SCT095 BKN110 17/14 A3024 RMK AO2 LTG DSNT SW RAE53 TSE02 SLP208 P0001 60032 T01720144 51007

10-Day Weather Forecast

Almanac

Astronomy

Aug. 30, 2016 Rise Set
Actual Time
Civil Twilight
Nautical Twilight
Astronomical Twilight
Moon
Length of Visible Light
Length of Day
Tomorrow will be .
, % of the Moon is Illuminated

Today's Extremes

State Highs State Lows

Community

WunderPhotos

Upload Photos

1,936,021 photos uploaded!

WunderBlog® & News

Nearby

Air Quality

  Air Quality AQ Index Pollutant
Not available.

Snow Depth

Station Depth Elevation

Earthquake Activity

City Distance Mag. Time & Date
Minimum magnitude displayed is 2.5.

Coastal Water Temperatures

Place Temperature

Stations

Nearby Weather Stations

Station Location Temp. Windchill Dew Point Humidity Wind Precip. Elev Updated Type
                   

Watches & Warnings

There are currently no watches in effect.